createdAt,value
2022-12-08T00:00:43.460Z,30.55
2022-12-08T00:03:29.109Z,28.55
2022-12-08T00:06:43.504Z,32.88
2022-12-08T00:09:39.455Z,33.20
2022-12-08T00:12:25.588Z,33.83
2022-12-08T00:15:11.459Z,30.75
2022-12-08T00:17:57.108Z,33.92
2022-12-08T00:20:43.019Z,34.15
2022-12-08T00:23:29.573Z,31.67
2022-12-08T00:26:15.331Z,34.22
2022-12-08T00:29:01.284Z,34.80
2022-12-08T00:31:47.159Z,35.53
2022-12-08T00:34:33.487Z,34.28
2022-12-08T00:37:19.706Z,34.30
2022-12-08T00:40:06.769Z,36.45
2022-12-08T00:42:52.817Z,37.13
2022-12-08T00:45:39.397Z,37.50
2022-12-08T00:48:25.327Z,39.35
2022-12-08T00:51:11.530Z,44.10
2022-12-08T00:53:56.963Z,41.10
2022-12-08T00:56:42.963Z,44.67
2022-12-08T00:59:28.845Z,47.55
2022-12-08T01:02:15.139Z,62.58
2022-12-08T01:05:01.312Z,47.17
2022-12-08T01:07:49.317Z,54.33
2022-12-08T01:10:37.091Z,50.65
2022-12-08T01:13:23.051Z,52.88
2022-12-08T01:16:08.943Z,52.60
2022-12-08T01:18:55.120Z,52.03
2022-12-08T01:21:41.545Z,50.92
2022-12-08T01:24:28.009Z,54.47
2022-12-08T01:27:16.282Z,55.35
2022-12-08T01:30:02.838Z,52.22
2022-12-08T01:32:49.559Z,53.70
2022-12-08T01:35:35.332Z,62.33
2022-12-08T01:38:22.602Z,59.55
2022-12-08T01:41:08.115Z,58.47
2022-12-08T01:43:59.228Z,51.83
2022-12-08T01:46:49.845Z,56.92
2022-12-08T01:49:37.328Z,52.42
2022-12-08T01:52:47.989Z,58.42
2022-12-08T01:55:39.160Z,54.85
2022-12-08T01:58:37.853Z,52.20
2022-12-08T02:01:24.549Z,49.75
2022-12-08T02:04:11.158Z,47.78
2022-12-08T02:06:57.807Z,44.40
2022-12-08T02:09:45.369Z,44.70
2022-12-08T02:12:31.515Z,44.53
2022-12-08T02:15:17.664Z,40.00
2022-12-08T02:18:17.696Z,38.67
2022-12-08T02:21:03.951Z,36.07
2022-12-08T02:24:20.587Z,37.07
2022-12-08T02:27:41.593Z,36.60
2022-12-08T02:31:02.275Z,36.78
2022-12-08T02:34:09.077Z,34.93
2022-12-08T02:37:23.932Z,37.05
2022-12-08T02:40:24.253Z,35.90
2022-12-08T02:43:17.977Z,41.20
2022-12-08T02:46:11.854Z,41.08
2022-12-08T02:48:59.338Z,41.35
2022-12-08T02:51:45.051Z,43.23
2022-12-08T02:54:31.248Z,45.38
2022-12-08T02:57:26.280Z,46.40
2022-12-08T03:00:18.519Z,43.60
2022-12-08T03:03:16.283Z,34.97
2022-12-08T03:06:09.354Z,34.67
2022-12-08T03:09:01.677Z,31.25
2022-12-08T03:12:02.305Z,28.52
2022-12-08T03:14:53.240Z,29.60
2022-12-08T03:17:45.519Z,30.67
2022-12-08T03:20:34.322Z,35.63
2022-12-08T03:23:21.948Z,39.28
2022-12-08T03:26:22.467Z,43.85
2022-12-08T03:29:08.279Z,45.08
2022-12-08T03:32:03.923Z,44.45
2022-12-08T03:34:51.320Z,43.17
2022-12-08T03:37:39.511Z,44.10
2022-12-08T03:40:25.456Z,43.05
2022-12-08T03:43:12.318Z,45.50
2022-12-08T03:45:58.250Z,43.65
2022-12-08T03:48:44.373Z,43.03
2022-12-08T03:51:30.535Z,47.37
2022-12-08T03:54:16.627Z,45.53
2022-12-08T03:57:02.770Z,46.22
2022-12-08T03:59:48.873Z,45.88
2022-12-08T04:02:35.141Z,47.15
2022-12-08T04:05:21.000Z,45.75
2022-12-08T04:08:07.654Z,47.63
2022-12-08T04:10:53.796Z,48.28
2022-12-08T04:13:41.587Z,48.73
2022-12-08T04:16:28.424Z,48.10
2022-12-08T04:19:15.035Z,45.35
2022-12-08T04:22:01.702Z,44.47
2022-12-08T04:24:48.063Z,43.38
2022-12-08T04:27:33.882Z,48.28
2022-12-08T04:30:19.732Z,44.78
2022-12-08T04:33:06.032Z,41.85
2022-12-08T04:35:51.943Z,43.22
2022-12-08T04:38:38.379Z,44.42
2022-12-08T04:41:24.654Z,41.50
2022-12-08T04:44:10.236Z,41.42
2022-12-08T04:46:55.803Z,41.20
2022-12-08T04:49:42.049Z,41.15
2022-12-08T04:52:27.923Z,41.63
2022-12-08T04:55:13.708Z,40.60
2022-12-08T04:58:00.137Z,47.25
2022-12-08T05:00:48.060Z,45.80
2022-12-08T05:03:34.141Z,44.97
2022-12-08T05:06:19.635Z,42.10
2022-12-08T05:09:06.426Z,37.38
2022-12-08T05:11:51.983Z,34.85
2022-12-08T05:14:38.127Z,35.67
2022-12-08T05:17:23.961Z,34.15
2022-12-08T05:20:10.346Z,30.38
2022-12-08T05:22:56.458Z,32.53
2022-12-08T05:25:43.364Z,32.10
2022-12-08T05:28:44.479Z,33.67
2022-12-08T05:31:30.400Z,32.53
2022-12-08T05:34:16.507Z,31.20
2022-12-08T05:37:02.650Z,31.45
2022-12-08T05:39:48.328Z,29.60
2022-12-08T05:42:34.484Z,28.55
2022-12-08T05:45:20.071Z,30.15
2022-12-08T05:48:05.868Z,29.75
2022-12-08T05:50:51.975Z,31.85
2022-12-08T05:53:38.181Z,32.45
2022-12-08T05:56:24.990Z,30.63
2022-12-08T05:59:10.964Z,30.75
2022-12-08T06:01:56.869Z,30.00
2022-12-08T06:04:43.151Z,30.70
2022-12-08T06:07:29.308Z,33.33
2022-12-08T06:10:15.186Z,29.70
2022-12-08T06:13:01.620Z,30.73
2022-12-08T06:15:47.697Z,30.80
2022-12-08T06:18:33.902Z,29.25
2022-12-08T06:21:19.872Z,30.00
2022-12-08T06:24:06.116Z,31.85
2022-12-08T06:26:54.552Z,30.38
2022-12-08T06:29:40.230Z,29.48
2022-12-08T06:32:27.696Z,29.83
2022-12-08T06:35:13.832Z,31.55
2022-12-08T06:37:59.796Z,32.70
2022-12-08T06:40:53.760Z,33.83
2022-12-08T06:43:40.866Z,32.72
2022-12-08T06:46:27.357Z,32.00
2022-12-08T06:49:12.905Z,31.38
2022-12-08T06:51:58.552Z,32.85
2022-12-08T06:54:44.460Z,31.35
2022-12-08T06:57:31.011Z,32.00
2022-12-08T07:00:18.208Z,35.17
2022-12-08T07:03:04.744Z,32.67
2022-12-08T07:05:50.446Z,30.73
2022-12-08T07:08:36.159Z,30.85
2022-12-08T07:11:22.897Z,30.00
2022-12-08T07:14:11.017Z,29.25
2022-12-08T07:16:57.210Z,29.48
2022-12-08T07:19:43.910Z,28.98
2022-12-08T07:22:29.551Z,32.28
2022-12-08T07:25:17.165Z,33.60
2022-12-08T07:28:08.463Z,31.98
2022-12-08T07:30:54.449Z,31.40
2022-12-08T07:33:39.935Z,33.05
2022-12-08T07:36:25.965Z,33.20
2022-12-08T07:39:11.691Z,32.55
2022-12-08T07:41:57.936Z,33.42
2022-12-08T07:44:46.166Z,32.83
2022-12-08T07:47:32.473Z,36.10
2022-12-08T07:50:17.952Z,34.60
2022-12-08T07:53:03.988Z,33.55
2022-12-08T07:55:49.636Z,33.00
2022-12-08T07:58:36.002Z,33.65
2022-12-08T08:01:26.308Z,35.53
2022-12-08T08:04:12.850Z,36.90
2022-12-08T08:06:59.173Z,37.10
2022-12-08T08:09:45.792Z,36.33
2022-12-08T08:12:32.804Z,37.03
2022-12-08T08:15:20.378Z,37.13
2022-12-08T08:18:07.885Z,34.40
2022-12-08T08:20:53.721Z,34.03
2022-12-08T08:23:39.901Z,34.30
2022-12-08T08:26:25.999Z,32.45
2022-12-08T08:29:11.974Z,32.92
2022-12-08T08:31:58.118Z,34.55
2022-12-08T08:34:44.956Z,36.10
2022-12-08T08:37:30.741Z,35.63
2022-12-08T08:40:18.212Z,36.17
2022-12-08T08:43:05.129Z,34.33
2022-12-08T08:45:50.857Z,37.35
2022-12-08T08:48:36.930Z,37.75
2022-12-08T08:51:25.578Z,39.35
2022-12-08T08:54:11.866Z,34.95
2022-12-08T08:56:59.483Z,34.75
2022-12-08T08:59:45.256Z,36.17
2022-12-08T09:02:32.248Z,32.13
2022-12-08T09:05:18.694Z,34.45
2022-12-08T09:08:04.894Z,36.03
2022-12-08T09:10:51.341Z,35.78
2022-12-08T09:13:38.539Z,34.40
2022-12-08T09:16:24.730Z,33.67
2022-12-08T09:19:11.507Z,36.30
2022-12-08T09:21:57.840Z,34.63
2022-12-08T09:24:43.363Z,35.13
2022-12-08T09:27:28.779Z,34.83
2022-12-08T09:30:14.700Z,33.60
2022-12-08T09:33:00.667Z,35.58
2022-12-08T09:35:47.099Z,36.25
2022-12-08T09:38:33.420Z,35.47
2022-12-08T09:41:48.628Z,35.08
2022-12-08T09:45:03.818Z,35.30
2022-12-08T09:48:04.726Z,35.72
2022-12-08T09:50:55.468Z,31.85
2022-12-08T09:53:46.080Z,33.78
2022-12-08T09:56:36.167Z,33.00
2022-12-08T09:59:31.652Z,33.13
2022-12-08T10:02:26.777Z,32.15
2022-12-08T10:05:14.675Z,34.17
2022-12-08T10:08:30.994Z,32.97
2022-12-08T10:11:28.153Z,31.55
2022-12-08T10:14:38.883Z,33.15
2022-12-08T10:17:28.565Z,35.83
2022-12-08T10:20:24.038Z,31.13
2022-12-08T10:23:13.308Z,30.63
2022-12-08T10:26:03.780Z,28.95
2022-12-08T10:28:49.441Z,29.67
2022-12-08T10:31:36.306Z,26.52
2022-12-08T10:34:24.425Z,26.42
2022-12-08T10:37:11.146Z,27.55
2022-12-08T10:40:05.710Z,27.25
2022-12-08T10:42:55.797Z,24.30
2022-12-08T10:45:41.792Z,25.38
2022-12-08T10:48:33.114Z,27.10
2022-12-08T10:51:49.480Z,23.20
2022-12-08T10:54:38.223Z,25.42
2022-12-08T10:57:25.413Z,22.65
2022-12-08T11:00:17.682Z,24.85
2022-12-08T11:03:05.394Z,21.85
2022-12-08T11:05:55.543Z,23.77
2022-12-08T11:08:49.531Z,24.10
2022-12-08T11:11:45.337Z,23.52
2022-12-08T11:14:36.222Z,23.85
2022-12-08T11:17:35.555Z,23.60
2022-12-08T11:20:23.156Z,30.13
2022-12-08T11:23:24.463Z,26.27
2022-12-08T11:26:17.593Z,23.05
2022-12-08T11:29:04.373Z,22.45
2022-12-08T11:31:55.226Z,23.23
2022-12-08T11:34:54.560Z,22.85
2022-12-08T11:37:43.267Z,25.13
2022-12-08T11:40:35.728Z,23.27
2022-12-08T11:43:27.716Z,31.25
2022-12-08T11:46:21.741Z,25.58
2022-12-08T11:49:14.147Z,24.05
2022-12-08T11:52:16.512Z,23.25
2022-12-08T11:55:37.352Z,24.25
2022-12-08T11:58:47.540Z,23.10
2022-12-08T12:01:39.315Z,23.35
2022-12-08T12:04:31.287Z,22.88
2022-12-08T12:07:58.922Z,22.98
2022-12-08T12:11:12.764Z,22.05
2022-12-08T12:14:18.456Z,19.05
2022-12-08T12:17:07.479Z,18.45
2022-12-08T12:19:55.788Z,20.92
2022-12-08T12:22:45.201Z,18.83
2022-12-08T12:25:34.446Z,16.65
2022-12-08T12:28:20.595Z,17.00
2022-12-08T12:31:11.212Z,16.27
2022-12-08T12:34:15.164Z,16.67
2022-12-08T12:37:14.131Z,15.68
2022-12-08T12:40:03.902Z,15.38
2022-12-08T12:42:55.939Z,14.82
2022-12-08T12:45:44.045Z,13.80
2022-12-08T12:48:30.888Z,13.77
2022-12-08T12:51:45.547Z,13.68
2022-12-08T12:54:31.610Z,15.35
2022-12-08T12:57:20.896Z,15.60
2022-12-08T13:00:10.562Z,14.07
2022-12-08T13:02:59.449Z,13.98
2022-12-08T13:05:52.440Z,13.57
2022-12-08T13:08:41.266Z,13.70
2022-12-08T13:11:27.351Z,14.68
2022-12-08T13:14:34.150Z,14.90
2022-12-08T13:17:31.668Z,13.93
2022-12-08T13:20:24.296Z,14.40
2022-12-08T13:23:26.800Z,15.13
2022-12-08T13:26:26.955Z,14.50
2022-12-08T13:29:18.074Z,14.90
2022-12-08T13:32:07.673Z,14.90
2022-12-08T13:35:00.350Z,14.15
2022-12-08T13:37:54.877Z,15.18
2022-12-08T13:40:43.161Z,14.70
2022-12-08T13:47:33.306Z,14.40
2022-12-08T13:57:03.998Z,15.80
2022-12-08T13:59:50.297Z,16.25
2022-12-08T14:02:45.359Z,16.90
2022-12-08T14:06:11.275Z,16.80
2022-12-08T14:09:02.592Z,17.17
2022-12-08T14:12:03.548Z,15.98
2022-12-08T14:15:03.143Z,15.90
2022-12-08T14:17:55.609Z,16.00
2022-12-08T14:21:12.551Z,16.00
2022-12-08T14:23:46.740Z,15.20
2022-12-08T14:26:35.356Z,16.77
2022-12-08T14:29:39.051Z,17.55
2022-12-08T14:32:31.448Z,15.65
2022-12-08T14:35:28.139Z,16.75
2022-12-08T14:38:17.214Z,15.70
2022-12-08T14:41:08.901Z,17.35
2022-12-08T14:44:01.751Z,17.95
2022-12-08T14:47:10.495Z,18.33
2022-12-08T14:49:58.153Z,19.52
2022-12-08T14:52:45.159Z,20.05
2022-12-08T14:55:38.340Z,20.60
2022-12-08T14:58:31.276Z,20.63
2022-12-08T15:01:23.379Z,19.88
2022-12-08T15:04:19.607Z,21.57
2022-12-08T15:07:14.040Z,22.38
2022-12-08T15:10:27.691Z,20.85
2022-12-08T15:13:14.936Z,21.50
2022-12-08T15:16:02.844Z,22.38
2022-12-08T15:19:16.281Z,22.80
2022-12-08T15:22:17.613Z,22.48
2022-12-08T15:25:03.371Z,23.73
2022-12-08T15:27:50.673Z,22.97
2022-12-08T15:30:37.465Z,22.55
2022-12-08T15:33:23.677Z,23.48
2022-12-08T15:36:10.335Z,23.15
2022-12-08T15:38:57.304Z,23.27
2022-12-08T15:41:43.056Z,24.17
2022-12-08T15:44:32.699Z,23.50
2022-12-08T15:47:21.290Z,24.30
2022-12-08T15:50:18.661Z,23.98
2022-12-08T15:53:04.507Z,24.63
2022-12-08T15:56:25.793Z,25.23
2022-12-08T15:58:57.681Z,25.63
2022-12-08T16:01:44.905Z,23.90
2022-12-08T16:05:18.421Z,24.45
2022-12-08T16:07:38.286Z,24.92
2022-12-08T16:10:35.452Z,25.02
2022-12-08T16:13:57.647Z,25.17
2022-12-08T16:16:46.975Z,27.73
2022-12-08T16:19:33.220Z,26.48
2022-12-08T16:26:08.948Z,25.20
2022-12-08T16:28:53.757Z,25.17
2022-12-08T16:31:40.443Z,26.23
2022-12-08T16:34:26.987Z,27.35
2022-12-08T16:37:21.005Z,26.15
2022-12-08T16:40:08.278Z,26.90
2022-12-08T16:42:54.803Z,26.20
2022-12-08T16:45:45.025Z,27.47
2022-12-08T16:48:31.328Z,25.55
2022-12-08T16:51:23.398Z,26.23
2022-12-08T16:54:13.224Z,29.27
2022-12-08T16:56:59.281Z,25.80
2022-12-08T16:59:45.060Z,25.83
2022-12-08T17:02:30.839Z,25.08
2022-12-08T17:05:20.037Z,26.23
2022-12-08T17:08:06.370Z,24.83
2022-12-08T17:11:07.225Z,27.05
2022-12-08T17:13:53.588Z,25.48
2022-12-08T17:16:40.531Z,26.17
2022-12-08T17:19:27.024Z,23.65
2022-12-08T17:22:13.098Z,22.83
2022-12-08T17:24:59.400Z,23.80
2022-12-08T17:27:45.867Z,23.50
2022-12-08T17:30:31.727Z,23.85
2022-12-08T17:33:22.303Z,23.92
2022-12-08T17:36:15.158Z,24.13
2022-12-08T17:39:01.937Z,23.42
2022-12-08T17:41:48.363Z,25.80
2022-12-08T17:44:34.263Z,25.17
2022-12-08T17:47:20.347Z,23.75
2022-12-08T17:50:07.501Z,21.92
2022-12-08T17:52:53.302Z,20.95
2022-12-08T17:55:39.460Z,21.05
2022-12-08T17:58:25.589Z,23.95
2022-12-08T18:01:11.551Z,23.42
2022-12-08T18:03:58.180Z,21.63
2022-12-08T18:06:44.021Z,27.25
2022-12-08T18:09:30.876Z,25.33
2022-12-08T18:12:20.780Z,21.70
2022-12-08T18:15:11.369Z,21.58
2022-12-08T18:17:57.016Z,20.75
2022-12-08T18:20:42.900Z,21.75
2022-12-08T18:23:29.098Z,22.15
2022-12-08T18:26:16.156Z,22.55
2022-12-08T18:29:03.653Z,24.73
2022-12-08T18:31:50.440Z,19.15
2022-12-08T18:34:36.011Z,21.42
2022-12-08T18:37:22.275Z,19.63
2022-12-08T18:40:09.401Z,20.83
2022-12-08T18:42:55.507Z,18.55
2022-12-08T18:45:41.139Z,19.95
2022-12-08T18:48:26.931Z,19.45
2022-12-08T18:51:13.926Z,20.20
2022-12-08T18:53:59.747Z,19.70
2022-12-08T18:56:46.018Z,18.83
2022-12-08T18:59:31.871Z,19.35
2022-12-08T19:02:18.602Z,19.42
2022-12-08T19:05:06.416Z,19.27
2022-12-08T19:07:52.709Z,17.90
2022-12-08T19:10:39.096Z,17.17
2022-12-08T19:13:25.067Z,17.80
2022-12-08T19:16:11.167Z,18.38
2022-12-08T19:18:57.579Z,19.23
2022-12-08T19:21:46.505Z,19.23
2022-12-08T19:24:34.824Z,18.13
2022-12-08T19:27:20.336Z,18.37
2022-12-08T19:30:06.992Z,18.33
2022-12-08T19:32:53.906Z,19.20
2022-12-08T19:35:40.339Z,16.85
2022-12-08T19:38:26.219Z,17.95
2022-12-08T19:41:36.375Z,18.00
2022-12-08T19:44:44.786Z,16.90
2022-12-08T19:47:31.144Z,18.30
2022-12-08T19:50:35.920Z,17.20
2022-12-08T19:53:23.372Z,18.50
2022-12-08T19:56:10.126Z,18.02
2022-12-08T19:58:56.311Z,18.48
2022-12-08T20:01:44.256Z,18.17
2022-12-08T20:04:30.247Z,19.27
2022-12-08T20:07:15.701Z,18.08
2022-12-08T20:10:04.736Z,18.48
2022-12-08T20:12:50.670Z,18.83
2022-12-08T20:15:36.377Z,17.80
2022-12-08T20:18:22.366Z,18.33
2022-12-08T20:21:09.949Z,17.67
2022-12-08T20:23:56.369Z,18.42
2022-12-08T20:26:41.863Z,18.85
2022-12-08T20:29:27.811Z,19.15
2022-12-08T20:32:13.441Z,18.92
2022-12-08T20:34:59.602Z,19.27
2022-12-08T20:37:46.109Z,17.38
2022-12-08T20:40:32.218Z,16.77
2022-12-08T20:43:17.864Z,18.10
2022-12-08T20:46:09.100Z,18.40
2022-12-08T20:48:56.172Z,16.40
2022-12-08T20:51:42.720Z,16.98
2022-12-08T20:54:28.666Z,18.08
2022-12-08T20:57:14.513Z,16.80
2022-12-08T21:00:00.749Z,17.42
2022-12-08T21:02:50.859Z,17.20
2022-12-08T21:05:48.355Z,17.52
2022-12-08T21:08:35.464Z,17.80
2022-12-08T21:11:21.441Z,17.77
2022-12-08T21:14:07.481Z,18.27
2022-12-08T21:16:54.572Z,18.50
2022-12-08T21:19:41.163Z,18.17
2022-12-08T21:22:26.714Z,17.60
2022-12-08T21:25:12.301Z,17.00
2022-12-08T21:27:58.628Z,18.27
2022-12-08T21:30:45.015Z,18.10
2022-12-08T21:33:31.366Z,17.90
2022-12-08T21:36:20.486Z,18.58
2022-12-08T21:39:11.757Z,17.88
2022-12-08T21:42:18.580Z,17.20
2022-12-08T21:45:06.790Z,18.67
2022-12-08T21:47:54.070Z,17.67
2022-12-08T21:50:40.497Z,17.98
2022-12-08T21:53:28.126Z,17.58
2022-12-08T21:56:13.881Z,18.48
2022-12-08T21:58:59.897Z,18.45
2022-12-08T22:01:46.399Z,18.77
2022-12-08T22:04:32.243Z,19.38
2022-12-08T22:07:22.522Z,18.27
2022-12-08T22:10:10.587Z,18.75
2022-12-08T22:12:57.592Z,19.00
2022-12-08T22:15:43.299Z,19.10
2022-12-08T22:18:29.517Z,18.95
2022-12-08T22:21:17.996Z,19.83
2022-12-08T22:24:04.200Z,19.58
2022-12-08T22:26:50.725Z,19.83
2022-12-08T22:29:36.816Z,20.67
2022-12-08T22:32:22.741Z,21.65
2022-12-08T22:35:09.078Z,21.75
2022-12-08T22:37:55.292Z,20.92
2022-12-08T22:40:41.272Z,22.00
2022-12-08T22:43:28.317Z,22.00
2022-12-08T22:46:20.651Z,22.60
2022-12-08T22:49:06.276Z,22.42
2022-12-08T22:51:53.069Z,22.50
2022-12-08T22:54:39.222Z,23.23
2022-12-08T22:57:25.643Z,22.85
2022-12-08T23:00:12.427Z,23.33
2022-12-08T23:02:58.593Z,23.10
2022-12-08T23:05:45.083Z,23.90
2022-12-08T23:08:30.800Z,23.42
2022-12-08T23:11:17.290Z,24.23
2022-12-08T23:14:03.454Z,24.38
2022-12-08T23:16:50.366Z,23.95
2022-12-08T23:19:37.289Z,22.50
2022-12-08T23:22:22.674Z,23.90
2022-12-08T23:25:09.057Z,23.98
2022-12-08T23:27:55.209Z,24.52
2022-12-08T23:30:41.478Z,24.10
2022-12-08T23:33:26.862Z,23.27
2022-12-08T23:36:18.394Z,24.05
2022-12-08T23:39:05.972Z,22.80
2022-12-08T23:41:52.871Z,23.40
2022-12-08T23:44:39.091Z,23.38
2022-12-08T23:47:24.976Z,22.92
2022-12-08T23:50:11.786Z,21.63
2022-12-08T23:52:58.104Z,23.10
2022-12-08T23:55:44.052Z,21.67
2022-12-08T23:58:31.399Z,21.52
